Time;durP1;ratioP1;P1;durP2;ratioP2;P2;SDS_P1;SDS_P2;PMS_P1;PMS_P2;Temp;Humidity;BMP_temperature;BMP_pressure;BME280_temperature;BME280_humidity;BME280_pressure;Samples;Min_cycle;Max_cycle;Signal;HPM_P1;HPM_P2
2022/11/24 00:00:10;;;;;;;;;;;;;;;17.65;47.95;96035.34;6156430;23;19920;-36
2022/11/24 00:15:09;;;;;;;;;;;;;;;17.58;48.14;96034.50;6156314;23;20397;-34
2022/11/24 00:30:10;;;;;;;;;;;;;;;17.64;47.92;96055.78;6156259;23;19915;-34
2022/11/24 00:45:11;;;;;;;;;;;;;;;17.60;48.04;96058.69;6157948;23;19915;-34
2022/11/24 01:00:12;;;;;;;;;;;;;;;17.61;47.96;96046.50;6158040;23;19916;-34
2022/11/24 01:02:38;;;;;;;;;;;;;;;17.64;47.99;96044.81;6157866;23;20367;-36
2022/11/24 01:45:14;;;;;;;;;;;;;;;17.57;47.95;96079.59;6157526;23;19987;-35
2022/11/24 02:00:15;;;;;;;;;;;;;;;17.51;48.02;96083.53;6157042;23;19919;-34
2022/11/24 02:15:16;;;;;;;;;;;;;;;17.50;47.75;96117.66;6157727;23;19916;-34
2022/11/24 02:30:17;;;;;;;;;;;;;;;17.46;47.95;96123.34;6157177;23;19916;-34
2022/11/24 02:45:17;;;;;;;;;;;;;;;17.41;47.97;96140.47;6157071;23;19951;-35
2022/11/24 03:00:18;;;;;;;;;;;;;;;17.47;47.49;96155.00;6157009;23;19920;-34
2022/11/24 03:15:19;;;;;;;;;;;;;;;17.42;47.65;96143.97;6156730;23;19991;-34
2022/11/24 03:30:20;;;;;;;;;;;;;;;17.35;47.84;96134.16;6156387;23;20275;-34
2022/11/24 03:45:21;;;;;;;;;;;;;;;17.41;47.63;96137.75;6156539;23;19914;-34
2022/11/24 04:00:22;;;;;;;;;;;;;;;17.31;47.76;96165.75;6156436;23;19915;-34
2022/11/24 04:15:23;;;;;;;;;;;;;;;17.37;47.42;96196.72;6158465;23;19932;-35
2022/11/24 04:30:23;;;;;;;;;;;;;;;17.31;47.68;96193.16;6158091;23;19964;-35
2022/11/24 04:45:24;;;;;;;;;;;;;;;17.35;47.52;96199.19;6158189;23;19919;-34
2022/11/24 05:00:25;;;;;;;;;;;;;;;17.32;47.62;96200.13;6157997;23;19923;-34
2022/11/24 05:15:26;;;;;;;;;;;;;;;17.31;47.35;96232.25;6157703;23;19920;-34
2022/11/24 05:30:26;;;;;;;;;;;;;;;17.28;47.26;96281.81;6127996;23;19916;-35
2022/11/24 05:45:27;;;;;;;;;;;;;;;17.23;47.41;96308.63;6128251;23;19916;-35
2022/11/24 06:00:28;;;;;;;;;;;;;;;17.23;47.24;96325.09;6127784;23;19920;-34
2022/11/24 06:15:29;;;;;;;;;;;;;;;17.24;47.27;96337.56;6127780;23;20247;-34
2022/11/24 06:30:30;;;;;;;;;;;;;;;17.30;47.27;96356.84;6157246;23;19915;-34
2022/11/24 06:45:31;;;;;;;;;;;;;;;17.15;47.96;96397.94;6132235;23;19979;-34
2022/11/24 06:47:56;;;;;;;;;;;;;;;17.16;48.05;96393.22;6132225;23;20593;-34
2022/11/24 07:02:33;;;;;;;;;;;;;;;17.29;48.18;96415.66;6156739;23;19960;-34
2022/11/24 07:32:31;;;;;;;;;;;;;;;17.24;48.58;96435.47;6156325;23;19957;-34
2022/11/24 07:47:08;;;;;;;;;;;;;;;17.28;48.19;96451.75;6153193;23;19982;-34
2022/11/24 08:01:45;;;;;;;;;;;;;;;17.23;48.24;96472.31;6153345;23;19964;-35
2022/11/24 08:16:22;;;;;;;;;;;;;;;17.22;48.07;96495.47;6152397;23;19923;-37
2022/11/24 08:31:11;;;;;;;;;;;;;;;17.22;48.03;96504.44;6153317;23;20358;-34
2022/11/24 08:45:48;;;;;;;;;;;;;;;17.17;48.45;96534.50;6153242;23;19919;-34
2022/11/24 09:00:40;;;;;;;;;;;;;;;16.89;49.43;96553.09;6154410;23;19915;-34
2022/11/24 09:15:42;;;;;;;;;;;;;;;17.19;48.71;96564.91;6152552;23;19987;-36
2022/11/24 09:30:39;;;;;;;;;;;;;;;17.20;48.70;96575.41;6154821;23;19916;-34
2022/11/24 09:45:40;;;;;;;;;;;;;;;17.06;49.48;96572.63;6154731;23;20259;-34
2022/11/24 10:00:41;;;;;;;;;;;;;;;17.26;49.01;96575.53;6154527;23;19916;-34
2022/11/24 10:15:43;;;;;;;;;;;;;;;17.17;49.52;96597.53;6154219;23;19920;-35
2022/11/24 10:30:44;;;;;;;;;;;;;;;17.34;49.38;96593.16;6153648;23;19920;-34
2022/11/24 10:45:45;;;;;;;;;;;;;;;17.18;50.05;96575.13;6154361;23;20406;-35
2022/11/24 11:00:47;;;;;;;;;;;;;;;17.29;50.02;96582.84;6156158;23;19967;-34
2022/11/24 11:15:46;;;;;;;;;;;;;;;17.21;50.79;96573.44;6156862;23;19919;-35
2022/11/24 11:30:46;;;;;;;;;;;;;;;16.92;52.80;96567.84;6127298;23;20252;-35
2022/11/24 11:45:47;;;;;;;;;;;;;;;17.34;50.81;96584.16;6126606;23;19951;-35
2022/11/24 12:00:48;;;;;;;;;;;;;;;17.39;51.11;96589.78;6126853;23;20351;-34
2022/11/24 12:15:49;;;;;;;;;;;;;;;17.44;50.44;96593.84;6126884;23;19960;-35
2022/11/24 12:30:49;;;;;;;;;;;;;;;17.25;52.04;96574.03;6126916;23;20301;-34
2022/11/24 12:45:51;;;;;;;;;;;;;;;17.38;51.74;96565.56;6128702;23;19955;-34
2022/11/24 13:00:53;;;;;;;;;;;;;;;17.11;53.16;96570.00;6128022;23;19916;-35
2022/11/24 13:15:51;;;;;;;;;;;;;;;17.33;51.76;96572.44;6128458;23;20285;-34
2022/11/24 13:30:52;;;;;;;;;;;;;;;17.44;51.55;96569.91;6157679;23;19947;-35
2022/11/24 13:33:31;;;;;;;;;;;;;;;17.45;51.56;96578.91;6157797;23;19909;-34
2022/11/24 13:48:20;;;;;;;;;;;;;;;17.47;51.58;96560.78;6152132;23;19920;-34
2022/11/24 13:50:48;;;;;;;;;;;;;;;17.48;51.61;96567.78;6155325;23;20316;-36
2022/11/24 13:53:35;;;;;;;;;;;;;;;17.50;51.29;96579.03;6155667;23;19916;-35
2022/11/24 14:02:18;;;;;;;;;;;;;;;17.52;51.04;96576.59;6157774;23;19975;-37
2022/11/24 14:17:05;;;;;;;;;;;;;;;17.41;51.81;96587.34;6153878;23;20239;-35
2022/11/24 14:31:50;;;;;;;;;;;;;;;17.41;51.90;96614.00;6154106;23;19968;-35
2022/11/24 14:46:27;;;;;;;;;;;;;;;17.45;51.81;96639.22;6154281;23;20147;-35
2022/11/24 15:01:19;;;;;;;;;;;;;;;17.54;51.57;96636.44;6153760;23;20042;-36
2022/11/24 15:03:45;;;;;;;;;;;;;;;17.52;51.67;96642.41;6154460;23;20354;-34
2022/11/24 15:30:58;;;;;;;;;;;;;;;17.53;51.87;96676.06;6152981;23;20267;-34
2022/11/24 15:46:02;;;;;;;;;;;;;;;17.52;52.02;96680.78;6153815;23;20350;-35
2022/11/24 15:48:28;;;;;;;;;;;;;;;17.50;52.05;96687.94;6151766;23;19967;-34
2022/11/24 15:50:54;;;;;;;;;;;;;;;17.53;51.92;96692.50;6153950;23;19943;-35
2022/11/24 16:32:57;;;;;;;;;;;;;;;17.49;52.05;96733.81;6153835;23;20247;-34
2022/11/24 16:47:37;;;;;;;;;;;;;;;17.51;51.94;96747.06;6155504;23;19968;-34
2022/11/24 17:02:14;;;;;;;;;;;;;;;17.49;52.03;96747.53;6155855;23;19967;-35
2022/11/24 17:16:50;;;;;;;;;;;;;;;17.52;51.82;96759.53;6155304;23;19923;-34
2022/11/24 17:19:16;;;;;;;;;;;;;;;17.50;51.98;96760.00;6156545;23;19995;-34
2022/11/24 17:31:06;;;;;;;;;;;;;;;17.48;51.90;96756.97;6157526;23;19915;-35
2022/11/24 17:46:06;;;;;;;;;;;;;;;16.98;54.87;96771.44;6157030;23;19939;-33
2022/11/24 18:01:08;;;;;;;;;;;;;;;17.93;52.46;96796.38;6157330;23;19915;-33
2022/11/24 18:16:09;;;;;;;;;;;;;;;18.16;51.57;96819.59;6157449;23;19967;-33
2022/11/24 18:31:09;;;;;;;;;;;;;;;18.31;50.58;96843.13;6127607;23;19920;-33
2022/11/24 18:46:10;;;;;;;;;;;;;;;18.40;49.92;96864.28;6124169;23;19919;-34
2022/11/24 19:01:11;;;;;;;;;;;;;;;18.40;49.60;96867.03;6124462;23;19964;-33
2022/11/24 19:16:12;;;;;;;;;;;;;;;18.52;49.03;96879.03;6123991;23;19919;-34
2022/11/24 19:31:14;;;;;;;;;;;;;;;18.51;48.52;96886.50;6124168;23;20035;-34
2022/11/24 19:46:17;;;;;;;;;;;;;;;18.57;47.93;96895.59;6122752;23;19947;-34
2022/11/24 20:01:15;;;;;;;;;;;;;;;18.53;47.56;96899.75;6123820;23;19960;-35
2022/11/24 20:16:14;;;;;;;;;;;;;;;18.58;47.17;96908.13;6123516;23;20359;-34
2022/11/24 20:31:21;;;;;;;;;;;;;;;18.48;47.17;96922.38;6123351;23;19923;-34
2022/11/24 20:46:16;;;;;;;;;;;;;;;18.51;46.83;96935.94;6123885;23;19964;-34
2022/11/24 21:01:17;;;;;;;;;;;;;;;18.52;46.13;96961.41;6124772;23;19951;-33
2022/11/24 21:16:18;;;;;;;;;;;;;;;18.49;45.70;96940.38;6125238;23;19920;-34
2022/11/24 21:31:19;;;;;;;;;;;;;;;18.45;45.52;96926.03;6125327;23;19939;-34
2022/11/24 21:46:21;;;;;;;;;;;;;;;18.41;45.46;96928.97;6125174;23;19960;-34
2022/11/24 22:01:21;;;;;;;;;;;;;;;18.44;45.32;96921.78;6124509;23;19963;-34
2022/11/24 22:16:22;;;;;;;;;;;;;;;18.30;45.07;96926.72;6124540;23;19919;-34
2022/11/24 22:31:22;;;;;;;;;;;;;;;18.35;44.84;96941.03;6153823;23;20379;-34
2022/11/24 22:46:23;;;;;;;;;;;;;;;18.30;45.18;96956.91;6153419;23;19943;-35
2022/11/24 23:01:24;;;;;;;;;;;;;;;18.30;45.01;96970.66;6153522;23;19972;-33
2022/11/24 23:16:25;;;;;;;;;;;;;;;18.23;44.88;96937.28;6153710;23;19999;-33
2022/11/24 23:18:51;;;;;;;;;;;;;;;18.19;44.99;96945.69;6153126;23;19920;-33
2022/11/24 23:33:28;;;;;;;;;;;;;;;18.19;44.85;96969.63;6153281;23;19966;-33
2022/11/24 23:48:07;;;;;;;;;;;;;;;18.16;45.08;96967.84;6150641;23;19920;-33
